JBU2202 KFLL-KJFK
Flight info
| Callsign | JBU2202 |
|---|---|
| Flight time | 2h 25m |
| Altitude | 35000 |
| Route | FEALX2 ETECK ROWSY Y309 FLRDA SAGGY CHIEZ Q161 KALDA Q108 SIE CAMRN5 |
| Aircraft | A321/M-SDE3FGHIRWY/LB1 |
Departure
| Time | 2026-05-05 23:01 |
|---|---|
| Airport | Fort Lauderdale Hollywood International Airport (KFLL) |
Arrival
| Time | 2026-05-06 01:27 |
|---|---|
| Airport | John F. Kennedy International Airport (KJFK) |
| Time | Latitude | Longitude | Altitude | Speed | Heading |
|---|---|---|---|---|---|
| 2026-05-05 22:14 | 26.06934 | -80.14606 | 16 ft | 0 kts | 90° |
| 2026-05-05 22:52 | 26.06934 | -80.14612 | 17 ft | 4 kts | 90° |
| 2026-05-05 22:52 | 26.06934 | -80.14642 | 19 ft | 4 kts | 90° |
| 2026-05-05 22:52 | 26.06935 | -80.14668 | 19 ft | 4 kts | 103° |
| 2026-05-05 22:52 | 26.06946 | -80.14693 | 16 ft | 4 kts | 143° |
| 2026-05-05 22:53 | 26.06968 | -80.14702 | 17 ft | 4 kts | 193° |
| 2026-05-05 22:53 | 26.06990 | -80.14689 | 17 ft | 4 kts | 241° |
| 2026-05-05 22:53 | 26.06994 | -80.14662 | 17 ft | 4 kts | 270° |
| 2026-05-05 22:53 | 26.06994 | -80.14653 | 17 ft | 0 kts | 270° |
| 2026-05-05 22:56 | 26.06994 | -80.14654 | 17 ft | 0 kts | 270° |
| 2026-05-05 22:56 | 26.06994 | -80.14673 | 18 ft | 5 kts | 270° |
| 2026-05-05 22:57 | 26.06974 | -80.14726 | 18 ft | 10 kts | 234° |
| 2026-05-05 22:57 | 26.06926 | -80.14796 | 16 ft | 12 kts | 235° |
| 2026-05-05 22:57 | 26.06907 | -80.14890 | 16 ft | 13 kts | 265° |
| 2026-05-05 22:57 | 26.06911 | -80.14993 | 16 ft | 14 kts | 272° |
| 2026-05-05 22:58 | 26.06906 | -80.15101 | 16 ft | 14 kts | 247° |
| 2026-05-05 22:58 | 26.06816 | -80.15130 | 16 ft | 15 kts | 179° |
| 2026-05-05 22:58 | 26.06719 | -80.15140 | 20 ft | 12 kts | 207° |
| 2026-05-05 22:58 | 26.06695 | -80.15216 | 21 ft | 11 kts | 269° |
| 2026-05-05 22:59 | 26.06696 | -80.15322 | 16 ft | 16 kts | 270° |
| 2026-05-05 22:59 | 26.06696 | -80.15447 | 16 ft | 17 kts | 270° |
| 2026-05-05 22:59 | 26.06697 | -80.15579 | 16 ft | 17 kts | 270° |
| 2026-05-05 22:59 | 26.06698 | -80.15718 | 16 ft | 18 kts | 270° |
| 2026-05-05 23:00 | 26.06590 | -80.15768 | 19 ft | 11 kts | 93° |
| 2026-05-05 23:00 | 26.06589 | -80.15740 | 20 ft | 0 kts | 90° |
| 2026-05-05 23:00 | 26.06589 | -80.15730 | 20 ft | 13 kts | 90° |
| 2026-05-05 23:01 | 26.06587 | -80.15291 | 22 ft | 99 kts | 90° |
| 2026-05-05 23:01 | 26.06582 | -80.14263 | 86 ft | 160 kts | 90° |
| 2026-05-05 23:01 | 26.06578 | -80.13045 | 951 ft | 155 kts | 90° |
| 2026-05-05 23:01 | 26.06565 | -80.11842 | 1789 ft | 160 kts | 87° |
| 2026-05-05 23:02 | 26.06590 | -80.10535 | 2397 ft | 183 kts | 87° |
| 2026-05-05 23:02 | 26.06621 | -80.09065 | 2849 ft | 198 kts | 86° |
| 2026-05-05 23:02 | 26.06650 | -80.07436 | 3072 ft | 222 kts | 87° |
| 2026-05-05 23:02 | 26.06676 | -80.05630 | 3268 ft | 247 kts | 88° |
| 2026-05-05 23:03 | 26.06701 | -80.03634 | 3662 ft | 267 kts | 88° |
| 2026-05-05 23:03 | 26.06792 | -80.01534 | 4306 ft | 275 kts | 78° |
| 2026-05-05 23:03 | 26.07586 | -79.99594 | 4845 ft | 281 kts | 51° |
| 2026-05-05 23:03 | 26.08800 | -79.97885 | 4987 ft | 282 kts | 49° |
| 2026-05-05 23:04 | 26.10064 | -79.96199 | 5656 ft | 283 kts | 47° |
| 2026-05-05 23:04 | 26.11333 | -79.94528 | 6476 ft | 284 kts | 47° |
| 2026-05-05 23:04 | 26.12615 | -79.92834 | 7200 ft | 288 kts | 48° |
| 2026-05-05 23:04 | 26.13912 | -79.91106 | 7875 ft | 294 kts | 48° |
| 2026-05-05 23:05 | 26.15222 | -79.89340 | 8516 ft | 298 kts | 48° |
| 2026-05-05 23:05 | 26.16532 | -79.87527 | 9131 ft | 303 kts | 50° |
| 2026-05-05 23:05 | 26.17804 | -79.85631 | 9736 ft | 308 kts | 52° |
| 2026-05-05 23:05 | 26.19070 | -79.83674 | 10240 ft | 316 kts | 52° |
| 2026-05-05 23:06 | 26.20373 | -79.81639 | 10366 ft | 337 kts | 52° |
| 2026-05-05 23:06 | 26.21775 | -79.79445 | 10487 ft | 358 kts | 52° |
| 2026-05-05 23:06 | 26.23262 | -79.77131 | 10604 ft | 377 kts | 52° |
| 2026-05-05 23:06 | 26.24625 | -79.75020 | 10824 ft | 388 kts | 52° |
| 2026-05-05 23:07 | 26.26213 | -79.72571 | 11297 ft | 392 kts | 52° |
| 2026-05-05 23:07 | 26.27823 | -79.70092 | 11865 ft | 395 kts | 52° |
| 2026-05-05 23:07 | 26.29485 | -79.67650 | 12409 ft | 397 kts | 46° |
| 2026-05-05 23:07 | 26.31394 | -79.65421 | 12976 ft | 398 kts | 43° |
| 2026-05-05 23:08 | 26.33335 | -79.63201 | 13536 ft | 401 kts | 43° |
| 2026-05-05 23:08 | 26.35287 | -79.60965 | 14056 ft | 404 kts | 43° |
| 2026-05-05 23:08 | 26.37250 | -79.58711 | 14553 ft | 406 kts | 43° |
| 2026-05-05 23:08 | 26.39228 | -79.56438 | 15048 ft | 409 kts | 43° |
| 2026-05-05 23:09 | 26.41215 | -79.54148 | 15541 ft | 412 kts | 43° |
| 2026-05-05 23:09 | 26.43216 | -79.51841 | 16038 ft | 415 kts | 43° |
| 2026-05-05 23:09 | 26.45234 | -79.49517 | 16529 ft | 418 kts | 42° |
| 2026-05-05 23:09 | 26.47267 | -79.47174 | 17026 ft | 421 kts | 42° |
| 2026-05-05 23:10 | 26.49309 | -79.44818 | 17544 ft | 424 kts | 42° |
| 2026-05-05 23:10 | 26.51366 | -79.42441 | 18039 ft | 427 kts | 42° |
| 2026-05-05 23:10 | 26.53407 | -79.40080 | 18484 ft | 429 kts | 42° |
| 2026-05-05 23:10 | 26.55603 | -79.37832 | 18864 ft | 428 kts | 33° |
| 2026-05-05 23:11 | 26.58084 | -79.36003 | 19241 ft | 427 kts | 27° |
| 2026-05-05 23:11 | 26.60639 | -79.34283 | 19620 ft | 430 kts | 27° |
| 2026-05-05 23:11 | 26.63210 | -79.32545 | 19993 ft | 433 kts | 26° |
| 2026-05-05 23:11 | 26.65792 | -79.30790 | 20357 ft | 436 kts | 27° |
| 2026-05-05 23:12 | 26.68387 | -79.29021 | 20712 ft | 438 kts | 26° |
| 2026-05-05 23:12 | 26.70999 | -79.27239 | 21065 ft | 441 kts | 26° |
| 2026-05-05 23:12 | 26.73623 | -79.25449 | 21415 ft | 443 kts | 26° |
| 2026-05-05 23:12 | 26.76263 | -79.23649 | 21759 ft | 446 kts | 26° |
| 2026-05-05 23:13 | 26.78922 | -79.21837 | 22085 ft | 449 kts | 26° |
| 2026-05-05 23:13 | 26.81597 | -79.20013 | 22397 ft | 451 kts | 26° |
| 2026-05-05 23:13 | 26.84285 | -79.18177 | 22718 ft | 454 kts | 26° |
| 2026-05-05 23:13 | 26.86992 | -79.16326 | 23040 ft | 456 kts | 26° |
| 2026-05-05 23:14 | 26.89708 | -79.14469 | 23351 ft | 459 kts | 26° |
| 2026-05-05 23:14 | 26.92441 | -79.12598 | 23653 ft | 461 kts | 26° |
| 2026-05-05 23:14 | 26.95185 | -79.10719 | 23932 ft | 463 kts | 26° |
| 2026-05-05 23:14 | 26.97936 | -79.08835 | 24224 ft | 464 kts | 25° |
| 2026-05-05 23:15 | 27.00698 | -79.06943 | 24514 ft | 466 kts | 25° |
| 2026-05-05 23:15 | 27.03469 | -79.05045 | 24809 ft | 467 kts | 25° |
| 2026-05-05 23:15 | 27.06246 | -79.03141 | 25104 ft | 469 kts | 25° |
| 2026-05-05 23:15 | 27.08999 | -79.01251 | 25370 ft | 471 kts | 25° |
| 2026-05-05 23:16 | 27.11801 | -78.99330 | 25646 ft | 472 kts | 25° |
| 2026-05-05 23:16 | 27.14613 | -78.97400 | 25919 ft | 474 kts | 25° |
| 2026-05-05 23:16 | 27.17424 | -78.95465 | 26199 ft | 475 kts | 25° |
| 2026-05-05 23:16 | 27.20251 | -78.93515 | 26488 ft | 477 kts | 25° |
| 2026-05-05 23:17 | 27.23083 | -78.91563 | 26767 ft | 478 kts | 25° |
| 2026-05-05 23:17 | 27.24965 | -78.90267 | 26962 ft | 479 kts | 25° |
| 2026-05-05 23:17 | 27.28775 | -78.87640 | 27341 ft | 481 kts | 25° |
| 2026-05-05 23:17 | 27.31632 | -78.85670 | 27614 ft | 482 kts | 25° |
| 2026-05-05 23:18 | 27.33522 | -78.84365 | 27858 ft | 482 kts | 25° |
| 2026-05-05 23:18 | 27.36372 | -78.82396 | 28247 ft | 480 kts | 24° |
| 2026-05-05 23:18 | 27.39310 | -78.80691 | 28625 ft | 470 kts | 15° |
| 2026-05-05 23:18 | 27.42379 | -78.79549 | 28998 ft | 460 kts | 7° |
| 2026-05-05 23:19 | 27.45498 | -78.78940 | 29373 ft | 453 kts | 1° |
| 2026-05-05 23:19 | 27.48625 | -78.78487 | 29785 ft | 451 kts | 1° |
| 2026-05-05 23:19 | 27.51735 | -78.78035 | 30181 ft | 450 kts | 1° |
| 2026-05-05 23:19 | 27.54832 | -78.77586 | 30529 ft | 448 kts | 0° |
| 2026-05-05 23:20 | 27.57913 | -78.77140 | 30890 ft | 445 kts | 0° |
| 2026-05-05 23:20 | 27.60977 | -78.76692 | 31277 ft | 443 kts | 0° |
| 2026-05-05 23:20 | 27.64029 | -78.76244 | 31667 ft | 440 kts | 0° |
| 2026-05-05 23:20 | 27.67056 | -78.75799 | 32045 ft | 437 kts | 0° |
| 2026-05-05 23:21 | 27.70026 | -78.75363 | 32417 ft | 435 kts | 0° |
| 2026-05-05 23:21 | 27.73017 | -78.74923 | 32788 ft | 432 kts | 0° |
| 2026-05-05 23:21 | 27.75994 | -78.74486 | 33153 ft | 430 kts | 0° |
| 2026-05-05 23:21 | 27.78958 | -78.74052 | 33513 ft | 427 kts | 0° |
| 2026-05-05 23:22 | 27.81899 | -78.73618 | 33867 ft | 425 kts | 0° |
| 2026-05-05 23:22 | 27.84828 | -78.73186 | 34198 ft | 423 kts | 360° |
| 2026-05-05 23:22 | 27.87739 | -78.72757 | 34487 ft | 421 kts | 360° |
| 2026-05-05 23:22 | 27.90641 | -78.72330 | 34793 ft | 419 kts | 359° |
| 2026-05-05 23:23 | 27.93530 | -78.71907 | 34998 ft | 418 kts | 359° |
| 2026-05-05 23:23 | 27.96418 | -78.71488 | 35053 ft | 418 kts | 359° |
| 2026-05-05 23:23 | 28.02172 | -78.70644 | 35058 ft | 417 kts | 359° |
| 2026-05-05 23:24 | 28.07923 | -78.69795 | 35061 ft | 417 kts | 359° |
| 2026-05-05 23:24 | 28.13678 | -78.68947 | 35059 ft | 417 kts | 359° |
| 2026-05-05 23:25 | 28.19428 | -78.68096 | 35095 ft | 417 kts | 359° |
| 2026-05-05 23:25 | 28.25181 | -78.67236 | 35088 ft | 417 kts | 359° |
| 2026-05-05 23:26 | 28.30908 | -78.66384 | 35087 ft | 417 kts | 359° |
| 2026-05-05 23:26 | 28.36668 | -78.65532 | 35086 ft | 417 kts | 359° |
| 2026-05-05 23:27 | 28.42431 | -78.64673 | 35084 ft | 417 kts | 359° |
| 2026-05-05 23:27 | 28.48189 | -78.63823 | 35111 ft | 417 kts | 360° |
| 2026-05-05 23:28 | 28.53949 | -78.62967 | 35099 ft | 418 kts | 360° |
| 2026-05-05 23:28 | 28.59710 | -78.62100 | 35091 ft | 418 kts | 360° |
| 2026-05-05 23:29 | 28.65475 | -78.61232 | 35087 ft | 417 kts | 360° |
| 2026-05-05 23:29 | 28.71232 | -78.60379 | 35084 ft | 417 kts | 360° |
| 2026-05-05 23:30 | 28.76996 | -78.59524 | 35112 ft | 418 kts | 360° |
| 2026-05-05 23:30 | 28.82763 | -78.58660 | 35100 ft | 418 kts | 0° |
| 2026-05-05 23:31 | 28.88536 | -78.57790 | 35092 ft | 419 kts | 360° |
| 2026-05-05 23:31 | 28.94355 | -78.56924 | 35070 ft | 429 kts | 0° |
| 2026-05-05 23:32 | 29.00293 | -78.56031 | 35070 ft | 431 kts | 0° |
| 2026-05-05 23:32 | 29.06246 | -78.55126 | 35087 ft | 432 kts | 0° |
| 2026-05-05 23:33 | 29.12210 | -78.54233 | 35076 ft | 432 kts | 0° |
| 2026-05-05 23:33 | 29.18172 | -78.53330 | 35075 ft | 432 kts | 0° |
| 2026-05-05 23:34 | 29.24141 | -78.52426 | 35081 ft | 433 kts | 0° |
| 2026-05-05 23:34 | 29.30110 | -78.51532 | 35082 ft | 433 kts | 0° |
| 2026-05-05 23:35 | 29.36082 | -78.50630 | 35104 ft | 433 kts | 0° |
| 2026-05-05 23:35 | 29.42062 | -78.49715 | 35097 ft | 433 kts | 0° |
| 2026-05-05 23:36 | 29.48004 | -78.48811 | 35095 ft | 433 kts | 0° |
| 2026-05-05 23:36 | 29.53986 | -78.47835 | 35102 ft | 435 kts | 1° |
| 2026-05-05 23:37 | 29.59969 | -78.46749 | 35095 ft | 435 kts | 2° |
| 2026-05-05 23:37 | 29.65953 | -78.45651 | 35116 ft | 435 kts | 1° |
| 2026-05-05 23:38 | 29.71929 | -78.44585 | 35111 ft | 434 kts | 1° |
| 2026-05-05 23:38 | 29.77877 | -78.43543 | 35105 ft | 434 kts | 1° |
| 2026-05-05 23:39 | 29.83855 | -78.42488 | 35101 ft | 434 kts | 1° |
| 2026-05-05 23:39 | 29.89823 | -78.41416 | 35126 ft | 434 kts | 1° |
| 2026-05-05 23:40 | 29.95752 | -78.40345 | 35093 ft | 430 kts | 1° |
| 2026-05-05 23:40 | 30.01662 | -78.39291 | 35093 ft | 430 kts | 1° |
| 2026-05-05 23:41 | 30.07588 | -78.38249 | 35098 ft | 430 kts | 1° |
| 2026-05-05 23:41 | 30.13509 | -78.37190 | 35102 ft | 431 kts | 1° |
| 2026-05-05 23:42 | 30.19430 | -78.36130 | 35101 ft | 431 kts | 1° |
| 2026-05-05 23:42 | 30.25357 | -78.35072 | 35105 ft | 431 kts | 1° |
| 2026-05-05 23:43 | 30.31284 | -78.34008 | 35105 ft | 431 kts | 1° |
| 2026-05-05 23:43 | 30.37214 | -78.32945 | 35104 ft | 431 kts | 1° |
| 2026-05-05 23:44 | 30.43146 | -78.31880 | 35122 ft | 431 kts | 1° |
| 2026-05-05 23:44 | 30.49037 | -78.30815 | 35118 ft | 431 kts | 1° |
| 2026-05-05 23:45 | 30.54971 | -78.29739 | 35113 ft | 431 kts | 1° |
| 2026-05-05 23:45 | 30.60907 | -78.28667 | 35115 ft | 432 kts | 1° |
| 2026-05-05 23:46 | 30.66846 | -78.27598 | 35116 ft | 432 kts | 1° |
| 2026-05-05 23:46 | 30.72780 | -78.26525 | 35112 ft | 431 kts | 1° |
| 2026-05-05 23:47 | 30.78680 | -78.25453 | 35100 ft | 429 kts | 1° |
| 2026-05-05 23:47 | 30.84576 | -78.24389 | 35104 ft | 429 kts | 1° |
| 2026-05-05 23:48 | 30.90453 | -78.23319 | 35109 ft | 430 kts | 1° |
| 2026-05-05 23:48 | 30.96359 | -78.22207 | 35109 ft | 431 kts | 2° |
| 2026-05-05 23:49 | 31.02265 | -78.20899 | 35133 ft | 432 kts | 3° |
| 2026-05-05 23:49 | 31.08152 | -78.19524 | 35128 ft | 431 kts | 3° |
| 2026-05-05 23:50 | 31.14041 | -78.18183 | 35125 ft | 431 kts | 3° |
| 2026-05-05 23:50 | 31.19925 | -78.16890 | 35123 ft | 430 kts | 3° |
| 2026-05-05 23:51 | 31.25811 | -78.15594 | 35147 ft | 430 kts | 3° |
| 2026-05-05 23:51 | 31.31686 | -78.14278 | 35134 ft | 429 kts | 3° |
| 2026-05-05 23:52 | 31.37515 | -78.12960 | 35131 ft | 429 kts | 3° |
| 2026-05-05 23:52 | 31.43377 | -78.11645 | 35130 ft | 428 kts | 2° |
| 2026-05-05 23:53 | 31.49243 | -78.10555 | 35127 ft | 426 kts | 0° |
| 2026-05-05 23:53 | 31.55101 | -78.09633 | 35122 ft | 423 kts | 360° |
| 2026-05-05 23:54 | 31.60939 | -78.08692 | 35118 ft | 423 kts | 0° |
| 2026-05-05 23:54 | 31.66773 | -78.07702 | 35120 ft | 424 kts | 0° |
| 2026-05-05 23:55 | 31.72618 | -78.06687 | 35125 ft | 425 kts | 0° |
| 2026-05-05 23:55 | 31.78463 | -78.05674 | 35150 ft | 425 kts | 0° |
| 2026-05-05 23:56 | 31.84314 | -78.04669 | 35144 ft | 424 kts | 0° |
| 2026-05-05 23:56 | 31.90158 | -78.03676 | 35137 ft | 424 kts | 0° |
| 2026-05-05 23:57 | 31.96001 | -78.02670 | 35133 ft | 424 kts | 0° |
| 2026-05-05 23:57 | 32.01842 | -78.01661 | 35133 ft | 424 kts | 0° |
| 2026-05-05 23:58 | 32.07678 | -78.00641 | 35121 ft | 422 kts | 0° |
| 2026-05-05 23:58 | 32.13481 | -77.99635 | 35119 ft | 422 kts | 0° |
| 2026-05-05 23:59 | 32.19299 | -77.98633 | 35121 ft | 422 kts | 0° |
| 2026-05-05 23:59 | 32.25114 | -77.97626 | 35131 ft | 423 kts | 0° |
| 2026-05-06 00:00 | 32.30937 | -77.96619 | 35127 ft | 423 kts | 0° |
| 2026-05-06 00:00 | 32.36721 | -77.95615 | 35166 ft | 423 kts | 0° |
| 2026-05-06 00:01 | 32.42523 | -77.94596 | 35128 ft | 421 kts | 0° |
| 2026-05-06 00:01 | 32.48323 | -77.93591 | 35126 ft | 422 kts | 0° |
| 2026-05-06 00:02 | 32.54141 | -77.92574 | 35128 ft | 422 kts | 0° |
| 2026-05-06 00:02 | 32.59964 | -77.91551 | 35146 ft | 423 kts | 0° |
| 2026-05-06 00:03 | 32.65787 | -77.90528 | 35140 ft | 423 kts | 0° |
| 2026-05-06 00:03 | 32.71607 | -77.89513 | 35138 ft | 423 kts | 0° |
| 2026-05-06 00:04 | 32.77433 | -77.88501 | 35136 ft | 423 kts | 0° |
| 2026-05-06 00:04 | 32.83253 | -77.87477 | 35136 ft | 423 kts | 0° |
| 2026-05-06 00:05 | 32.91951 | -77.85946 | 35136 ft | 423 kts | 0° |
| 2026-05-06 00:06 | 32.97775 | -77.84922 | 35133 ft | 423 kts | 0° |
| 2026-05-06 00:06 | 33.03594 | -77.83893 | 35134 ft | 423 kts | 0° |
| 2026-05-06 00:07 | 33.09419 | -77.82861 | 35154 ft | 423 kts | 0° |
| 2026-05-06 00:07 | 33.14256 | -77.81994 | 35141 ft | 422 kts | 0° |
| 2026-05-06 00:08 | 33.20068 | -77.80963 | 35140 ft | 422 kts | 0° |
| 2026-05-06 00:08 | 33.25879 | -77.79936 | 35138 ft | 422 kts | 0° |
| 2026-05-06 00:09 | 33.31688 | -77.78895 | 35138 ft | 422 kts | 0° |
| 2026-05-06 00:09 | 33.37469 | -77.77867 | 35150 ft | 422 kts | 0° |
| 2026-05-06 00:10 | 33.43278 | -77.76843 | 35143 ft | 422 kts | 0° |
| 2026-05-06 00:10 | 33.49081 | -77.75815 | 35140 ft | 422 kts | 0° |
| 2026-05-06 00:11 | 33.54886 | -77.74770 | 35133 ft | 422 kts | 0° |
| 2026-05-06 00:11 | 33.60677 | -77.73462 | 35147 ft | 433 kts | 11° |
| 2026-05-06 00:12 | 33.66333 | -77.70867 | 35136 ft | 435 kts | 12° |
| 2026-05-06 00:12 | 33.71977 | -77.68212 | 35132 ft | 436 kts | 13° |
| 2026-05-06 00:13 | 33.77622 | -77.65554 | 35137 ft | 436 kts | 12° |
| 2026-05-06 00:13 | 33.83266 | -77.62905 | 35137 ft | 436 kts | 12° |
| 2026-05-06 00:14 | 33.88918 | -77.60256 | 35139 ft | 436 kts | 13° |
| 2026-05-06 00:14 | 33.94574 | -77.57602 | 35140 ft | 437 kts | 13° |
| 2026-05-06 00:15 | 34.00209 | -77.54952 | 35124 ft | 438 kts | 13° |
| 2026-05-06 00:15 | 34.05897 | -77.52270 | 35124 ft | 439 kts | 13° |
| 2026-05-06 00:16 | 34.11595 | -77.49570 | 35141 ft | 440 kts | 13° |
| 2026-05-06 00:16 | 34.17296 | -77.46866 | 35132 ft | 440 kts | 14° |
| 2026-05-06 00:17 | 34.22997 | -77.44161 | 35129 ft | 440 kts | 13° |
| 2026-05-06 00:17 | 34.28707 | -77.41448 | 35129 ft | 441 kts | 14° |
| 2026-05-06 00:18 | 34.34418 | -77.38736 | 35148 ft | 441 kts | 14° |
| 2026-05-06 00:18 | 34.40130 | -77.36022 | 35142 ft | 441 kts | 14° |
| 2026-05-06 00:19 | 34.45840 | -77.33301 | 35131 ft | 441 kts | 14° |
| 2026-05-06 00:19 | 34.51547 | -77.30581 | 35126 ft | 441 kts | 14° |
| 2026-05-06 00:20 | 34.57258 | -77.27855 | 35121 ft | 441 kts | 14° |
| 2026-05-06 00:20 | 34.62976 | -77.25114 | 35131 ft | 443 kts | 14° |
| 2026-05-06 00:21 | 34.68732 | -77.22362 | 35159 ft | 449 kts | 14° |
| 2026-05-06 00:21 | 34.74509 | -77.19582 | 35120 ft | 446 kts | 14° |
| 2026-05-06 00:22 | 34.80281 | -77.16800 | 35117 ft | 447 kts | 14° |
| 2026-05-06 00:22 | 34.86069 | -77.14008 | 35137 ft | 448 kts | 14° |
| 2026-05-06 00:23 | 34.91881 | -77.11208 | 35121 ft | 449 kts | 14° |
| 2026-05-06 00:23 | 34.97699 | -77.08399 | 35119 ft | 450 kts | 14° |
| 2026-05-06 00:24 | 35.03523 | -77.05575 | 35129 ft | 451 kts | 14° |
| 2026-05-06 00:24 | 35.09350 | -77.02754 | 35125 ft | 451 kts | 14° |
| 2026-05-06 00:25 | 35.15190 | -76.99924 | 35127 ft | 452 kts | 14° |
| 2026-05-06 00:25 | 35.21030 | -76.97085 | 35114 ft | 452 kts | 14° |
| 2026-05-06 00:26 | 35.26872 | -76.94242 | 35109 ft | 452 kts | 14° |
| 2026-05-06 00:26 | 35.32719 | -76.91388 | 35118 ft | 452 kts | 14° |
| 2026-05-06 00:27 | 35.38567 | -76.88533 | 35115 ft | 452 kts | 14° |
| 2026-05-06 00:27 | 35.44374 | -76.85697 | 35118 ft | 452 kts | 15° |
| 2026-05-06 00:28 | 35.50219 | -76.82841 | 35115 ft | 452 kts | 15° |
| 2026-05-06 00:28 | 35.56063 | -76.79976 | 35108 ft | 452 kts | 15° |
| 2026-05-06 00:29 | 35.61919 | -76.77093 | 35084 ft | 453 kts | 15° |
| 2026-05-06 00:29 | 35.67765 | -76.74210 | 35076 ft | 453 kts | 15° |
| 2026-05-06 00:30 | 35.73610 | -76.71324 | 35067 ft | 453 kts | 15° |
| 2026-05-06 00:30 | 35.79463 | -76.68433 | 35072 ft | 453 kts | 15° |
| 2026-05-06 00:31 | 35.85324 | -76.65540 | 35072 ft | 454 kts | 15° |
| 2026-05-06 00:31 | 35.91190 | -76.62642 | 35083 ft | 454 kts | 15° |
| 2026-05-06 00:32 | 35.97052 | -76.59734 | 35082 ft | 454 kts | 15° |
| 2026-05-06 00:32 | 36.02921 | -76.56809 | 35080 ft | 456 kts | 15° |
| 2026-05-06 00:33 | 36.08771 | -76.53888 | 35083 ft | 456 kts | 15° |
| 2026-05-06 00:33 | 36.14665 | -76.50945 | 35080 ft | 457 kts | 15° |
| 2026-05-06 00:34 | 36.20564 | -76.48009 | 35093 ft | 457 kts | 15° |
| 2026-05-06 00:34 | 36.26475 | -76.45054 | 35087 ft | 458 kts | 15° |
| 2026-05-06 00:35 | 36.32385 | -76.42092 | 35077 ft | 458 kts | 15° |
| 2026-05-06 00:35 | 36.38301 | -76.39130 | 35077 ft | 458 kts | 15° |
| 2026-05-06 00:36 | 36.44176 | -76.36177 | 35074 ft | 459 kts | 15° |
| 2026-05-06 00:36 | 36.50104 | -76.33183 | 35082 ft | 460 kts | 15° |
| 2026-05-06 00:37 | 36.56028 | -76.30186 | 35072 ft | 460 kts | 15° |
| 2026-05-06 00:37 | 36.61962 | -76.27193 | 35041 ft | 459 kts | 15° |
| 2026-05-06 00:38 | 36.67886 | -76.24207 | 35062 ft | 459 kts | 15° |
| 2026-05-06 00:38 | 36.73821 | -76.21197 | 35038 ft | 461 kts | 16° |
| 2026-05-06 00:39 | 36.79767 | -76.18178 | 35009 ft | 461 kts | 15° |
| 2026-05-06 00:39 | 36.85710 | -76.15154 | 35010 ft | 461 kts | 16° |
| 2026-05-06 00:40 | 36.91653 | -76.12128 | 35013 ft | 461 kts | 15° |
| 2026-05-06 00:40 | 36.97607 | -76.09106 | 35011 ft | 462 kts | 16° |
| 2026-05-06 00:41 | 37.03565 | -76.06062 | 35027 ft | 463 kts | 16° |
| 2026-05-06 00:41 | 37.09526 | -76.03009 | 35021 ft | 463 kts | 16° |
| 2026-05-06 00:42 | 37.15491 | -75.99945 | 35022 ft | 463 kts | 16° |
| 2026-05-06 00:42 | 37.21457 | -75.96875 | 35022 ft | 464 kts | 16° |
| 2026-05-06 00:43 | 37.27393 | -75.93814 | 35019 ft | 464 kts | 16° |
| 2026-05-06 00:43 | 37.33365 | -75.90738 | 35022 ft | 464 kts | 16° |
| 2026-05-06 00:44 | 37.39346 | -75.87651 | 35014 ft | 465 kts | 16° |
| 2026-05-06 00:44 | 37.45336 | -75.84547 | 35019 ft | 466 kts | 16° |
| 2026-05-06 00:45 | 37.51340 | -75.81438 | 35027 ft | 467 kts | 16° |
| 2026-05-06 00:45 | 37.57340 | -75.78319 | 35029 ft | 466 kts | 16° |
| 2026-05-06 00:46 | 37.63323 | -75.75202 | 35009 ft | 463 kts | 16° |
| 2026-05-06 00:46 | 37.69277 | -75.72107 | 35008 ft | 463 kts | 16° |
| 2026-05-06 00:47 | 37.75233 | -75.69004 | 35009 ft | 463 kts | 16° |
| 2026-05-06 00:47 | 37.81186 | -75.65891 | 35006 ft | 464 kts | 16° |
| 2026-05-06 00:48 | 37.87155 | -75.62770 | 35012 ft | 465 kts | 16° |
| 2026-05-06 00:48 | 37.93137 | -75.59628 | 35021 ft | 465 kts | 16° |
| 2026-05-06 00:49 | 37.99123 | -75.56483 | 35013 ft | 466 kts | 16° |
| 2026-05-06 00:49 | 38.05055 | -75.53361 | 35017 ft | 466 kts | 16° |
| 2026-05-06 00:50 | 38.11054 | -75.50188 | 35007 ft | 467 kts | 17° |
| 2026-05-06 00:50 | 38.16042 | -75.47549 | 35002 ft | 467 kts | 16° |
| 2026-05-06 00:51 | 38.22300 | -75.44245 | 35013 ft | 467 kts | 16° |
| 2026-05-06 00:51 | 38.28306 | -75.41058 | 35013 ft | 468 kts | 17° |
| 2026-05-06 00:52 | 38.34307 | -75.37861 | 35005 ft | 467 kts | 17° |
| 2026-05-06 00:52 | 38.40294 | -75.34673 | 35003 ft | 466 kts | 17° |
| 2026-05-06 00:53 | 38.45270 | -75.32030 | 35010 ft | 466 kts | 17° |
| 2026-05-06 00:53 | 38.52235 | -75.28327 | 35018 ft | 467 kts | 17° |
| 2026-05-06 00:54 | 38.57255 | -75.25641 | 35015 ft | 467 kts | 17° |
| 2026-05-06 00:54 | 38.63248 | -75.22424 | 35002 ft | 467 kts | 17° |
| 2026-05-06 00:55 | 38.69241 | -75.19148 | 34980 ft | 471 kts | 21° |
| 2026-05-06 00:55 | 38.74717 | -75.14360 | 34985 ft | 480 kts | 32° |
| 2026-05-06 00:56 | 38.80024 | -75.09144 | 34987 ft | 481 kts | 32° |
| 2026-05-06 00:56 | 38.85308 | -75.03952 | 35018 ft | 481 kts | 32° |
| 2026-05-06 00:57 | 38.90624 | -74.98725 | 35005 ft | 481 kts | 32° |
| 2026-05-06 00:57 | 38.95939 | -74.93500 | 34999 ft | 481 kts | 32° |
| 2026-05-06 00:58 | 39.01249 | -74.88271 | 35000 ft | 481 kts | 32° |
| 2026-05-06 00:58 | 39.06549 | -74.83022 | 35008 ft | 480 kts | 32° |
| 2026-05-06 00:58 | 39.09180 | -74.80400 | 34511 ft | 478 kts | 32° |
| 2026-05-06 00:59 | 39.11800 | -74.77735 | 33657 ft | 480 kts | 33° |
| 2026-05-06 00:59 | 39.14386 | -74.75003 | 33051 ft | 479 kts | 35° |
| 2026-05-06 00:59 | 39.16953 | -74.72215 | 32791 ft | 486 kts | 36° |
| 2026-05-06 00:59 | 39.19537 | -74.69373 | 31960 ft | 492 kts | 36° |
| 2026-05-06 01:00 | 39.22144 | -74.66496 | 30999 ft | 493 kts | 37° |
| 2026-05-06 01:00 | 39.24733 | -74.63645 | 30054 ft | 497 kts | 37° |
| 2026-05-06 01:00 | 39.27380 | -74.60749 | 28917 ft | 501 kts | 37° |
| 2026-05-06 01:00 | 39.30060 | -74.57837 | 27927 ft | 506 kts | 37° |
| 2026-05-06 01:01 | 39.32770 | -74.54898 | 26732 ft | 511 kts | 37° |
| 2026-05-06 01:01 | 39.35508 | -74.51931 | 25496 ft | 517 kts | 38° |
| 2026-05-06 01:01 | 39.38272 | -74.48934 | 24750 ft | 522 kts | 38° |
| 2026-05-06 01:01 | 39.41067 | -74.45899 | 23968 ft | 524 kts | 38° |
| 2026-05-06 01:02 | 39.43860 | -74.42859 | 23096 ft | 522 kts | 38° |
| 2026-05-06 01:02 | 39.46626 | -74.39840 | 22349 ft | 518 kts | 38° |
| 2026-05-06 01:02 | 39.49371 | -74.36833 | 21903 ft | 515 kts | 38° |
| 2026-05-06 01:02 | 39.52089 | -74.33852 | 21513 ft | 508 kts | 38° |
| 2026-05-06 01:03 | 39.54770 | -74.30910 | 20736 ft | 500 kts | 38° |
| 2026-05-06 01:03 | 39.57415 | -74.28008 | 19929 ft | 495 kts | 38° |
| 2026-05-06 01:03 | 39.60028 | -74.25141 | 19154 ft | 490 kts | 38° |
| 2026-05-06 01:03 | 39.62588 | -74.22330 | 18405 ft | 485 kts | 38° |
| 2026-05-06 01:04 | 39.65146 | -74.19518 | 17577 ft | 479 kts | 39° |
| 2026-05-06 01:04 | 39.67672 | -74.16737 | 16755 ft | 474 kts | 39° |
| 2026-05-06 01:04 | 39.70168 | -74.13985 | 15955 ft | 468 kts | 39° |
| 2026-05-06 01:04 | 39.72630 | -74.11270 | 15184 ft | 462 kts | 39° |
| 2026-05-06 01:05 | 39.75071 | -74.08577 | 14437 ft | 457 kts | 39° |
| 2026-05-06 01:05 | 39.77477 | -74.05918 | 13740 ft | 452 kts | 39° |
| 2026-05-06 01:05 | 39.79250 | -74.03954 | 13169 ft | 448 kts | 39° |
| 2026-05-06 01:05 | 39.81606 | -74.01337 | 12491 ft | 443 kts | 39° |
| 2026-05-06 01:06 | 39.83983 | -73.98837 | 11964 ft | 433 kts | 33° |
| 2026-05-06 01:06 | 39.86519 | -73.96886 | 11713 ft | 416 kts | 26° |
| 2026-05-06 01:06 | 39.89015 | -73.95126 | 11453 ft | 400 kts | 26° |
| 2026-05-06 01:06 | 39.91399 | -73.93436 | 11195 ft | 374 kts | 26° |
| 2026-05-06 01:07 | 39.93583 | -73.91879 | 11047 ft | 342 kts | 26° |
| 2026-05-06 01:07 | 39.95588 | -73.90443 | 11067 ft | 323 kts | 26° |
| 2026-05-06 01:07 | 39.97566 | -73.89035 | 11068 ft | 324 kts | 25° |
| 2026-05-06 01:07 | 39.99535 | -73.87575 | 11062 ft | 329 kts | 27° |
| 2026-05-06 01:08 | 40.01493 | -73.86077 | 10958 ft | 325 kts | 28° |
| 2026-05-06 01:08 | 40.03425 | -73.84596 | 10731 ft | 318 kts | 28° |
| 2026-05-06 01:08 | 40.05331 | -73.83121 | 10507 ft | 318 kts | 28° |
| 2026-05-06 01:08 | 40.07229 | -73.81659 | 10290 ft | 317 kts | 27° |
| 2026-05-06 01:09 | 40.09127 | -73.80193 | 10077 ft | 315 kts | 28° |
| 2026-05-06 01:09 | 40.11013 | -73.78738 | 9865 ft | 315 kts | 28° |
| 2026-05-06 01:09 | 40.12893 | -73.77289 | 9619 ft | 313 kts | 26° |
| 2026-05-06 01:09 | 40.14771 | -73.75839 | 9385 ft | 313 kts | 27° |
| 2026-05-06 01:10 | 40.16637 | -73.74398 | 9150 ft | 310 kts | 28° |
| 2026-05-06 01:10 | 40.18496 | -73.72950 | 8927 ft | 311 kts | 27° |
| 2026-05-06 01:10 | 40.20346 | -73.71509 | 8685 ft | 308 kts | 27° |
| 2026-05-06 01:10 | 40.22184 | -73.70063 | 8445 ft | 307 kts | 28° |
| 2026-05-06 01:11 | 40.24012 | -73.68627 | 8140 ft | 305 kts | 27° |
| 2026-05-06 01:11 | 40.25828 | -73.67189 | 7767 ft | 305 kts | 27° |
| 2026-05-06 01:11 | 40.27641 | -73.65749 | 7384 ft | 304 kts | 27° |
| 2026-05-06 01:11 | 40.29423 | -73.64322 | 7002 ft | 304 kts | 27° |
| 2026-05-06 01:12 | 40.31227 | -73.62868 | 6635 ft | 303 kts | 27° |
| 2026-05-06 01:12 | 40.33015 | -73.61410 | 6296 ft | 302 kts | 27° |
| 2026-05-06 01:12 | 40.34797 | -73.59956 | 5926 ft | 301 kts | 27° |
| 2026-05-06 01:12 | 40.36573 | -73.58507 | 5544 ft | 301 kts | 27° |
| 2026-05-06 01:13 | 40.38351 | -73.57068 | 5188 ft | 300 kts | 27° |
| 2026-05-06 01:13 | 40.40133 | -73.55630 | 4794 ft | 301 kts | 27° |
| 2026-05-06 01:13 | 40.41920 | -73.54187 | 4417 ft | 301 kts | 27° |
| 2026-05-06 01:13 | 40.43711 | -73.52757 | 4069 ft | 300 kts | 27° |
| 2026-05-06 01:14 | 40.47473 | -73.50579 | 4023 ft | 291 kts | 356° |
| 2026-05-06 01:14 | 40.49471 | -73.50662 | 4026 ft | 286 kts | 348° |
| 2026-05-06 01:14 | 40.51453 | -73.50886 | 4019 ft | 286 kts | 347° |
| 2026-05-06 01:15 | 40.53438 | -73.51129 | 4018 ft | 287 kts | 347° |
| 2026-05-06 01:15 | 40.55425 | -73.51376 | 4013 ft | 286 kts | 347° |
| 2026-05-06 01:15 | 40.57406 | -73.51618 | 4014 ft | 286 kts | 347° |
| 2026-05-06 01:15 | 40.59391 | -73.51863 | 4010 ft | 287 kts | 347° |
| 2026-05-06 01:16 | 40.61388 | -73.52114 | 4015 ft | 288 kts | 347° |
| 2026-05-06 01:16 | 40.63380 | -73.52359 | 3929 ft | 286 kts | 347° |
| 2026-05-06 01:16 | 40.65363 | -73.52598 | 3596 ft | 286 kts | 347° |
| 2026-05-06 01:16 | 40.67344 | -73.52845 | 3208 ft | 287 kts | 347° |
| 2026-05-06 01:17 | 40.69325 | -73.53091 | 3003 ft | 287 kts | 347° |
| 2026-05-06 01:17 | 40.71300 | -73.53338 | 3017 ft | 291 kts | 347° |
| 2026-05-06 01:17 | 40.73347 | -73.53583 | 3014 ft | 292 kts | 347° |
| 2026-05-06 01:17 | 40.75346 | -73.53826 | 3017 ft | 291 kts | 347° |
| 2026-05-06 01:18 | 40.77358 | -73.54082 | 3018 ft | 291 kts | 347° |
| 2026-05-06 01:18 | 40.79375 | -73.54342 | 2981 ft | 291 kts | 347° |
| 2026-05-06 01:18 | 40.81390 | -73.54602 | 2993 ft | 290 kts | 347° |
| 2026-05-06 01:18 | 40.83390 | -73.54866 | 2984 ft | 289 kts | 347° |
| 2026-05-06 01:19 | 40.85384 | -73.55180 | 2978 ft | 285 kts | 340° |
| 2026-05-06 01:19 | 40.87014 | -73.56159 | 2977 ft | 254 kts | 311° |
| 2026-05-06 01:19 | 40.87979 | -73.57824 | 2965 ft | 206 kts | 278° |
| 2026-05-06 01:19 | 40.88131 | -73.59590 | 2974 ft | 192 kts | 260° |
| 2026-05-06 01:20 | 40.87891 | -73.61286 | 2974 ft | 185 kts | 240° |
| 2026-05-06 01:20 | 40.87098 | -73.62578 | 2979 ft | 183 kts | 215° |
| 2026-05-06 01:20 | 40.85894 | -73.63144 | 2982 ft | 190 kts | 190° |
| 2026-05-06 01:20 | 40.84564 | -73.63234 | 3030 ft | 192 kts | 189° |
| 2026-05-06 01:21 | 40.83227 | -73.63325 | 2993 ft | 192 kts | 190° |
| 2026-05-06 01:21 | 40.81892 | -73.63418 | 2984 ft | 192 kts | 190° |
| 2026-05-06 01:21 | 40.80571 | -73.63512 | 2958 ft | 191 kts | 190° |
| 2026-05-06 01:21 | 40.79319 | -73.63898 | 2973 ft | 183 kts | 208° |
| 2026-05-06 01:22 | 40.78225 | -73.64732 | 2938 ft | 181 kts | 213° |
| 2026-05-06 01:22 | 40.77152 | -73.65579 | 2810 ft | 179 kts | 213° |
| 2026-05-06 01:22 | 40.76102 | -73.66406 | 2602 ft | 177 kts | 213° |
| 2026-05-06 01:22 | 40.75066 | -73.67220 | 2380 ft | 165 kts | 213° |
| 2026-05-06 01:23 | 40.74146 | -73.67942 | 2181 ft | 142 kts | 212° |
| 2026-05-06 01:23 | 40.73353 | -73.68564 | 2027 ft | 129 kts | 213° |
| 2026-05-06 01:23 | 40.72597 | -73.69158 | 1852 ft | 123 kts | 212° |
| 2026-05-06 01:23 | 40.71885 | -73.69717 | 1692 ft | 117 kts | 211° |
| 2026-05-06 01:24 | 40.71183 | -73.70267 | 1542 ft | 116 kts | 214° |
| 2026-05-06 01:24 | 40.70497 | -73.70806 | 1387 ft | 115 kts | 211° |
| 2026-05-06 01:24 | 40.69791 | -73.71360 | 1236 ft | 119 kts | 212° |
| 2026-05-06 01:24 | 40.69075 | -73.71921 | 1072 ft | 121 kts | 211° |
| 2026-05-06 01:25 | 40.68383 | -73.72463 | 915 ft | 123 kts | 211° |
| 2026-05-06 01:25 | 40.67641 | -73.73043 | 750 ft | 131 kts | 208° |
| 2026-05-06 01:25 | 40.66834 | -73.73675 | 590 ft | 133 kts | 207° |
| 2026-05-06 01:25 | 40.66041 | -73.74295 | 423 ft | 130 kts | 207° |
| 2026-05-06 01:26 | 40.65249 | -73.74915 | 241 ft | 133 kts | 205° |
| 2026-05-06 01:26 | 40.64446 | -73.75552 | 64 ft | 134 kts | 208° |
| 2026-05-06 01:26 | 40.63707 | -73.76142 | 23 ft | 106 kts | 206° |
| 2026-05-06 01:26 | 40.63206 | -73.76517 | 22 ft | 60 kts | 212° |
| 2026-05-06 01:27 | 40.62985 | -73.76769 | 22 ft | 32 kts | 233° |
| 2026-05-06 01:27 | 40.62942 | -73.76994 | 23 ft | 25 kts | 302° |
| 2026-05-06 01:27 | 40.63100 | -73.76973 | 23 ft | 25 kts | 22° |
| 2026-05-06 01:27 | 40.63239 | -73.76949 | 22 ft | 6 kts | 4° |
| 2026-05-06 01:28 | 40.63256 | -73.76948 | 22 ft | 4 kts | 4° |
| 2026-05-06 01:28 | 40.63259 | -73.76947 | 22 ft | 1 kts | 4° |
| 2026-05-06 01:28 | 40.63266 | -73.76947 | 22 ft | 0 kts | 1° |
| 2026-05-06 01:29 | 40.63269 | -73.76947 | 22 ft | 1 kts | 1° |
| 2026-05-06 01:29 | 40.63313 | -73.76949 | 22 ft | 13 kts | 349° |
| 2026-05-06 01:29 | 40.63400 | -73.77075 | 24 ft | 25 kts | 300° |
| 2026-05-06 01:30 | 40.63496 | -73.77293 | 23 ft | 29 kts | 301° |
| 2026-05-06 01:30 | 40.63599 | -73.77517 | 22 ft | 24 kts | 302° |
| 2026-05-06 01:30 | 40.63672 | -73.77643 | 20 ft | 15 kts | 320° |
| 2026-05-06 01:30 | 40.63766 | -73.77625 | 21 ft | 16 kts | 32° |
| 2026-05-06 01:31 | 40.63866 | -73.77546 | 21 ft | 17 kts | 30° |
| 2026-05-06 01:31 | 40.63970 | -73.77467 | 22 ft | 17 kts | 30° |
| 2026-05-06 01:31 | 40.64077 | -73.77383 | 22 ft | 19 kts | 31° |
| 2026-05-06 01:31 | 40.64187 | -73.77296 | 27 ft | 19 kts | 31° |
| 2026-05-06 01:32 | 40.64252 | -73.77245 | 24 ft | 8 kts | 31° |
| 2026-05-06 01:32 | 40.64311 | -73.77199 | 23 ft | 12 kts | 30° |
| 2026-05-06 01:32 | 40.64388 | -73.77142 | 23 ft | 14 kts | 20° |
| 2026-05-06 01:32 | 40.64460 | -73.77204 | 23 ft | 14 kts | 301° |
| 2026-05-06 01:33 | 40.64473 | -73.77339 | 23 ft | 16 kts | 268° |
| 2026-05-06 01:33 | 40.64493 | -73.77430 | 23 ft | 10 kts | 334° |
| 2026-05-06 01:33 | 40.64522 | -73.77435 | 24 ft | 3 kts | 359° |
| 2026-05-06 01:33 | 40.64536 | -73.77435 | 23 ft | 0 kts | 358° |
| 2026-05-06 01:34 | 40.64539 | -73.77435 | 23 ft | 0 kts | 358° |